Time;durP1;ratioP1;P1;durP2;ratioP2;P2;SDS_P1;SDS_P2;PMS_P1;PMS_P2;Temp;Humidity;BMP_temperature;BMP_pressure;BME280_temperature;BME280_humidity;BME280_pressure;Samples;Min_cycle;Max_cycle;Signal;HPM_P1;HPM_P2
2022/06/26 00:00:24;;;;;;;4.75;3.03;;;;;;;20.09;64.75;98516.09;5024320;28;20531;-78
2022/06/26 00:02:49;;;;;;;3.50;3.20;;;;;;;20.01;63.02;98513.38;4989452;28;20440;-78
2022/06/26 00:05:15;;;;;;;3.83;2.92;;;;;;;20.84;60.34;98504.72;5023831;28;20042;-78
2022/06/26 00:07:41;;;;;;;3.58;3.00;;;;;;;21.06;59.76;98519.22;5025244;28;20035;-78
2022/06/26 00:10:08;;;;;;;3.30;3.05;;;;;;;20.99;59.54;98519.69;5022317;28;20426;-78
2022/06/26 00:12:34;;;;;;;3.38;3.08;;;;;;;20.90;59.70;98495.28;5025224;28;20036;-78
2022/06/26 00:15:00;;;;;;;2.78;2.55;;;;;;;21.01;59.66;98520.19;5023789;28;20124;-78
2022/06/26 00:17:26;;;;;;;3.38;3.08;;;;;;;21.02;59.68;98510.91;5043340;28;20120;-78
2022/06/26 00:19:53;;;;;;;2.97;2.63;;;;;;;20.90;59.74;98505.38;5029815;28;20105;-78
2022/06/26 00:22:19;;;;;;;3.22;3.03;;;;;;;20.84;59.97;98506.66;5023670;28;20022;-78
2022/06/26 00:24:45;;;;;;;6.32;3.25;;;;;;;20.58;60.59;98504.00;5043600;28;20121;-78
2022/06/26 00:27:11;;;;;;;2.55;2.35;;;;;;;20.80;60.13;98511.94;5023717;28;20029;-78
2022/06/26 00:29:36;;;;;;;3.50;3.17;;;;;;;20.82;59.87;98515.13;5022050;28;20401;-78
2022/06/26 00:32:03;;;;;;;5.45;3.05;;;;;;;20.64;60.15;98486.44;5029247;28;21359;-78
2022/06/26 00:34:29;;;;;;;3.58;3.17;;;;;;;20.74;60.01;98507.81;5023209;28;20116;-78
2022/06/26 00:36:54;;;;;;;3.80;3.33;;;;;;;20.60;60.75;98517.22;5028118;28;20034;-78
2022/06/26 00:39:20;;;;;;;3.40;3.20;;;;;;;20.68;60.40;98513.72;5025270;28;20457;-78
2022/06/26 00:41:46;;;;;;;2.50;2.40;;;;;;;20.62;60.38;98510.34;5024666;28;20405;-78
2022/06/26 00:44:15;;;;;;;2.97;2.78;;;;;;;20.59;60.50;98521.88;5027626;28;20034;-78
2022/06/26 00:46:40;;;;;;;3.22;2.97;;;;;;;20.60;60.47;98506.38;5025895;28;20026;-78
2022/06/26 00:49:06;;;;;;;3.67;3.40;;;;;;;20.50;60.39;98512.13;5011627;28;20059;-78
2022/06/26 00:51:31;;;;;;;3.38;2.75;;;;;;;20.54;60.71;98519.31;5030573;28;20469;-78
2022/06/26 00:53:57;;;;;;;3.78;3.45;;;;;;;20.51;60.37;98519.94;5012738;28;20116;-78
2022/06/26 00:56:22;;;;;;;6.07;3.33;;;;;;;20.52;60.43;98524.25;5006814;28;20053;-78
2022/06/26 00:58:48;;;;;;;3.20;2.90;;;;;;;20.42;60.96;98523.81;5026199;28;20026;-78
2022/06/26 01:01:13;;;;;;;4.32;3.03;;;;;;;20.35;60.81;98524.28;5026859;28;20059;-78
2022/06/26 01:03:39;;;;;;;4.03;3.72;;;;;;;20.35;60.85;98528.91;5023655;28;20517;-79
2022/06/26 01:06:07;;;;;;;3.45;3.25;;;;;;;20.41;60.88;98514.88;5027288;28;20029;-78
2022/06/26 01:08:34;;;;;;;3.42;3.13;;;;;;;20.42;60.88;98523.81;5017972;28;20042;-78
2022/06/26 01:11:00;;;;;;;3.33;3.03;;;;;;;20.41;60.88;98519.47;5027570;28;20026;-78
2022/06/26 01:13:26;;;;;;;3.25;3.05;;;;;;;20.28;61.27;98523.97;5023854;28;20037;-78
2022/06/26 01:15:52;;;;;;;6.32;3.75;;;;;;;20.24;60.97;98508.66;5026025;28;20493;-78
2022/06/26 01:18:18;;;;;;;4.22;3.10;;;;;;;20.28;61.02;98509.59;5024122;28;20105;-78
2022/06/26 01:20:44;;;;;;;3.28;3.08;;;;;;;20.32;61.22;98518.69;5022710;28;20481;-78
2022/06/26 01:23:09;;;;;;;3.17;2.80;;;;;;;20.31;61.23;98522.53;5020197;28;20038;-78
2022/06/26 01:25:42;;;;;;;4.40;3.80;;;;;;;19.84;63.37;98530.44;5027023;28;20043;-78
2022/06/26 01:28:07;;;;;;;3.55;3.25;;;;;;;19.71;62.65;98527.84;5027065;28;20062;-78
2022/06/26 01:30:33;;;;;;;5.28;3.25;;;;;;;20.08;61.63;98516.44;5021939;28;20061;-78
2022/06/26 01:32:58;;;;;;;4.10;3.40;;;;;;;20.18;61.52;98533.16;5010312;28;20040;-79
2022/06/26 01:35:23;;;;;;;3.95;3.58;;;;;;;20.13;61.47;98522.50;5023257;28;20879;-78
2022/06/26 01:37:49;;;;;;;7.00;3.58;;;;;;;19.86;62.43;98536.31;5025316;28;20026;-78
2022/06/26 01:40:14;;;;;;;3.72;3.42;;;;;;;19.35;64.29;98530.78;5026516;28;20385;-78
2022/06/26 01:42:40;;;;;;;4.22;3.90;;;;;;;19.24;65.08;98521.31;5027806;28;20055;-78
2022/06/26 01:45:05;;;;;;;5.00;4.10;;;;;;;19.25;64.66;98529.09;5003811;28;20037;-78
2022/06/26 01:47:31;;;;;;;5.10;3.80;;;;;;;19.15;65.40;98520.47;5023482;28;20033;-78
2022/06/26 01:49:56;;;;;;;4.38;3.88;;;;;;;19.04;64.42;98528.06;5007934;28;20128;-78
2022/06/26 01:52:22;;;;;;;3.95;3.47;;;;;;;19.31;63.43;98525.16;5025296;28;20036;-78
2022/06/26 01:54:47;;;;;;;3.50;3.22;;;;;;;19.34;63.13;98529.16;5023700;28;20030;-78
2022/06/26 01:57:12;;;;;;;4.70;3.53;;;;;;;19.89;62.01;98541.13;5027392;28;20033;-78
2022/06/26 01:59:38;;;;;;;3.95;3.63;;;;;;;20.01;61.78;98538.56;5025505;28;20041;-78
2022/06/26 02:02:03;;;;;;;6.10;3.28;;;;;;;19.99;61.77;98540.81;5023071;28;20473;-78
2022/06/26 02:04:29;;;;;;;4.30;3.67;;;;;;;19.93;61.51;98520.41;5003858;28;20148;-78
2022/06/26 02:06:55;;;;;;;3.70;3.40;;;;;;;19.93;61.69;98536.66;5023985;28;20038;-78
2022/06/26 02:14:49;;;;;;;3.92;3.53;;;;;;;19.71;62.34;98517.00;5025126;28;20036;-78
2022/06/26 02:17:15;;;;;;;3.22;3.03;;;;;;;19.76;62.35;98519.59;5025870;28;20469;-78
2022/06/26 02:19:40;;;;;;;3.40;3.13;;;;;;;19.73;62.11;98518.28;5023192;28;20029;-78
2022/06/26 02:22:06;;;;;;;4.05;3.67;;;;;;;19.81;61.85;98533.75;5026104;28;20370;-78
2022/06/26 02:24:31;;;;;;;5.32;3.58;;;;;;;19.71;61.92;98525.13;5022019;28;20087;-78
2022/06/26 02:26:56;;;;;;;3.50;3.20;;;;;;;19.75;62.06;98529.59;5022566;28;20520;-78
2022/06/26 02:29:22;;;;;;;5.28;3.40;;;;;;;19.67;62.10;98533.09;5020498;28;20511;-78
2022/06/26 02:31:47;;;;;;;3.72;3.17;;;;;;;19.65;61.99;98534.53;5023439;28;20432;-78
2022/06/26 02:34:12;;;;;;;7.32;4.20;;;;;;;18.85;65.70;98538.28;5022364;28;20312;-78
2022/06/26 02:36:38;;;;;;;3.70;3.50;;;;;;;18.86;64.63;98531.78;5036079;28;20486;-78
2022/06/26 02:39:03;;;;;;;4.25;3.90;;;;;;;18.95;63.95;98493.97;5026011;28;20022;-78
2022/06/26 02:41:29;;;;;;;4.45;3.20;;;;;;;19.24;63.19;98529.44;5025544;28;20026;-78
2022/06/26 02:43:54;;;;;;;3.88;3.58;;;;;;;19.34;62.91;98523.72;5025073;28;20072;-78
2022/06/26 02:46:19;;;;;;;4.68;3.50;;;;;;;19.53;62.00;98535.13;5024269;28;20048;-78
2022/06/26 02:48:45;;;;;;;7.28;3.60;;;;;;;19.52;62.30;98530.84;5022766;28;20034;-78
2022/06/26 02:51:10;;;;;;;3.58;3.28;;;;;;;19.44;61.99;98518.84;5016312;28;20120;-78
2022/06/26 02:53:36;;;;;;;4.03;3.65;;;;;;;19.53;62.39;98531.66;4990195;28;20076;-78
2022/06/26 02:56:01;;;;;;;3.53;3.28;;;;;;;19.57;62.38;98544.22;5023953;28;20083;-78
2022/06/26 02:58:26;;;;;;;3.75;3.25;;;;;;;19.52;62.25;98543.56;5023086;28;20029;-78
2022/06/26 03:00:53;;;;;;;6.45;4.22;;;;;;;18.73;66.89;98538.06;5023160;28;20477;-78
2022/06/26 03:03:18;;;;;;;7.93;4.60;;;;;;;18.14;67.88;98535.69;5024010;28;20382;-78
2022/06/26 03:05:44;;;;;;;4.28;3.83;;;;;;;18.17;67.68;98538.59;5024665;28;20033;-78
2022/06/26 03:08:09;;;;;;;4.32;3.92;;;;;;;18.01;69.51;98534.63;5037391;28;20029;-78
2022/06/26 03:10:34;;;;;;;8.40;5.10;;;;;;;17.75;69.93;98547.06;5024053;28;20144;-78
2022/06/26 03:13:00;;;;;;;7.53;4.88;;;;;;;17.34;71.46;98549.75;5025077;28;20090;-78
2022/06/26 03:15:25;;;;;;;4.70;4.20;;;;;;;17.75;68.94;98552.47;5023391;28;20083;-78
2022/06/26 03:17:51;;;;;;;5.03;3.75;;;;;;;17.51;69.98;98544.59;5024867;28;20030;-78
2022/06/26 03:20:18;;;;;;;5.35;4.70;;;;;;;17.63;69.88;98557.56;5034387;28;20021;-78
2022/06/26 03:22:44;;;;;;;5.47;4.97;;;;;;;17.31;71.93;98539.56;5036965;28;20032;-78
2022/06/26 03:25:10;;;;;;;8.80;5.32;;;;;;;17.16;72.33;98550.63;5027842;28;20064;-78
2022/06/26 03:27:36;;;;;;;10.88;4.63;;;;;;;17.08;72.24;98554.81;5025165;28;20084;-78
2022/06/26 03:30:03;;;;;;;4.97;4.57;;;;;;;17.33;70.06;98540.06;5023905;28;20108;-78
2022/06/26 03:32:29;;;;;;;3.70;3.40;;;;;;;18.10;67.24;98549.00;5007820;28;20037;-78
2022/06/26 03:34:54;;;;;;;7.93;4.13;;;;;;;18.69;65.31;98542.50;5023702;28;20555;-78
2022/06/26 03:37:20;;;;;;;4.28;3.88;;;;;;;18.85;64.25;98551.03;5007911;28;20133;-78
2022/06/26 03:39:45;;;;;;;4.25;3.60;;;;;;;18.93;64.48;98550.28;5025137;28;20426;-78
2022/06/26 03:42:11;;;;;;;5.95;3.67;;;;;;;18.88;64.44;98543.09;5009078;28;20036;-79
2022/06/26 03:44:36;;;;;;;9.05;4.20;;;;;;;18.96;64.37;98552.38;5020556;28;20033;-78
2022/06/26 03:47:02;;;;;;;4.30;4.00;;;;;;;19.05;63.88;98540.47;5026469;28;20124;-78
2022/06/26 03:49:27;;;;;;;4.50;3.92;;;;;;;19.14;63.62;98546.72;5005428;28;20084;-78
2022/06/26 03:51:52;;;;;;;7.05;3.80;;;;;;;19.25;63.53;98558.06;5025855;28;20033;-78
2022/06/26 03:54:19;;;;;;;8.77;4.20;;;;;;;19.13;64.08;98566.00;5030041;28;20430;-78
2022/06/26 03:56:44;;;;;;;5.20;3.92;;;;;;;19.29;63.48;98562.56;5031937;28;20083;-78
2022/06/26 03:59:10;;;;;;;6.30;4.78;;;;;;;19.30;63.32;98564.16;5025009;28;20021;-78
2022/06/26 04:01:35;;;;;;;5.43;4.00;;;;;;;19.40;63.31;98569.31;5043831;28;20060;-78
2022/06/26 04:04:01;;;;;;;5.10;3.58;;;;;;;19.29;63.69;98567.16;5028800;28;20029;-78
2022/06/26 04:06:26;;;;;;;4.38;3.97;;;;;;;19.36;63.72;98587.31;5006460;28;20025;-78
2022/06/26 04:08:52;;;;;;;5.00;4.50;;;;;;;18.74;66.67;98588.31;5016319;28;20037;-78
2022/06/26 04:11:17;;;;;;;5.60;4.38;;;;;;;19.29;64.19;98578.00;5027025;28;20143;-78
2022/06/26 04:13:43;;;;;;;6.40;4.00;;;;;;;19.43;63.79;98590.38;5028510;28;20108;-78
2022/06/26 04:16:08;;;;;;;6.38;5.47;;;;;;;19.13;68.61;98579.53;5011455;28;20039;-78
2022/06/26 04:18:34;;;;;;;5.40;4.30;;;;;;;19.46;64.73;98598.97;5027932;28;20477;-78
2022/06/26 04:21:00;;;;;;;5.43;4.50;;;;;;;19.54;67.58;98593.59;5030281;28;20036;-78
2022/06/26 04:23:25;;;;;;;6.38;4.43;;;;;;;19.21;66.93;98593.09;5027312;28;20037;-78
2022/06/26 04:25:54;;;;;;;5.72;4.20;;;;;;;18.91;71.63;98580.34;5027357;28;20040;-78
2022/06/26 04:28:19;;;;;;;5.13;4.63;;;;;;;18.97;71.51;98592.63;5019737;28;20051;-78
2022/06/26 04:30:45;;;;;;;4.78;4.43;;;;;;;18.93;72.21;98599.78;5028153;28;20033;-78
2022/06/26 04:33:10;;;;;;;6.13;4.55;;;;;;;19.25;70.86;98588.66;5027879;28;20563;-78
2022/06/26 04:35:36;;;;;;;4.78;4.38;;;;;;;19.67;69.43;98589.16;5007175;28;20033;-78
2022/06/26 04:38:02;;;;;;;7.03;4.60;;;;;;;19.49;70.18;98582.09;5029316;28;20017;-78
2022/06/26 04:40:29;;;;;;;6.85;5.70;;;;;;;19.29;70.79;98588.81;5028011;28;20029;-78
2022/06/26 04:42:55;;;;;;;5.47;4.93;;;;;;;19.46;70.71;98588.13;5022822;28;20222;-78
2022/06/26 04:45:21;;;;;;;8.63;6.03;;;;;;;19.35;70.39;98593.81;5028444;28;20061;-78
2022/06/26 04:47:47;;;;;;;6.78;5.88;;;;;;;19.42;70.37;98598.78;5025008;28;20169;-78
2022/06/26 04:50:12;;;;;;;6.68;6.05;;;;;;;19.38;70.00;98601.31;5029782;28;20030;-78
2022/06/26 04:52:37;;;;;;;7.68;5.50;;;;;;;19.33;70.64;98598.72;5029980;28;20041;-78
2022/06/26 04:55:03;;;;;;;8.02;5.38;;;;;;;19.35;70.03;98601.94;5026327;28;20513;-78
2022/06/26 04:57:29;;;;;;;9.15;5.68;;;;;;;19.39;69.89;98597.53;5026060;28;20461;-78
2022/06/26 04:59:54;;;;;;;5.47;4.90;;;;;;;19.77;69.74;98603.22;5025448;28;20033;-78
2022/06/26 05:02:20;;;;;;;6.30;5.70;;;;;;;19.47;69.86;98609.47;5026965;28;20078;-78
2022/06/26 05:04:45;;;;;;;6.32;5.57;;;;;;;19.62;69.71;98592.00;5029048;28;20035;-78
2022/06/26 05:07:11;;;;;;;8.73;5.05;;;;;;;19.90;69.03;98607.72;4992607;28;20119;-78
2022/06/26 05:09:36;;;;;;;6.47;5.47;;;;;;;20.28;68.63;98608.00;5027650;28;20035;-78
2022/06/26 05:12:02;;;;;;;8.65;6.13;;;;;;;19.94;68.10;98594.34;5025373;28;20041;-78
2022/06/26 05:14:27;;;;;;;10.15;5.80;;;;;;;19.87;69.15;98605.66;5021390;28;20036;-78
2022/06/26 05:16:53;;;;;;;8.20;5.28;;;;;;;19.86;69.50;98604.03;5024794;28;20382;-78
2022/06/26 05:19:18;;;;;;;7.22;6.07;;;;;;;20.05;69.43;98612.69;5027219;28;20029;-78
2022/06/26 05:21:44;;;;;;;7.32;5.30;;;;;;;20.18;68.51;98605.56;5026901;28;20030;-78
2022/06/26 05:24:09;;;;;;;12.48;5.55;;;;;;;19.88;70.15;98601.81;5023792;28;20120;-78
2022/06/26 05:26:35;;;;;;;7.22;5.13;;;;;;;19.84;69.60;98600.84;5009835;28;20292;-78
2022/06/26 05:29:01;;;;;;;12.05;6.72;;;;;;;19.41;70.37;98599.91;5022921;28;20413;-78
2022/06/26 05:31:26;;;;;;;9.20;5.63;;;;;;;19.42;70.19;98596.06;5027852;28;20466;-78
2022/06/26 05:33:53;;;;;;;4.95;4.45;;;;;;;20.38;65.26;98606.91;5026437;28;20116;-78
2022/06/26 05:36:18;;;;;;;6.40;5.38;;;;;;;20.44;67.86;98598.28;5022623;28;20091;-78
2022/06/26 05:38:44;;;;;;;6.10;4.85;;;;;;;20.78;65.71;98598.28;5041857;28;20029;-78
2022/06/26 05:41:09;;;;;;;3.95;3.50;;;;;;;21.17;62.35;98599.19;4988360;28;20025;-78
2022/06/26 05:43:35;;;;;;;7.13;3.83;;;;;;;21.42;62.76;98615.41;5006622;28;20036;-78
2022/06/26 05:46:00;;;;;;;4.03;3.72;;;;;;;21.43;61.51;98602.59;5028653;28;20045;-78
2022/06/26 05:48:26;;;;;;;5.72;3.95;;;;;;;21.59;61.45;98612.63;5026396;28;20107;-79
2022/06/26 05:50:53;;;;;;;5.00;4.38;;;;;;;21.69;62.37;98608.72;5036042;28;20672;-79
2022/06/26 05:53:19;;;;;;;5.75;3.67;;;;;;;21.89;60.60;98610.75;5026793;28;20420;-78
2022/06/26 05:55:45;;;;;;;4.90;3.70;;;;;;;21.83;60.68;98606.63;5021063;28;20060;-79
2022/06/26 05:58:11;;;;;;;4.55;4.00;;;;;;;22.08;60.18;98626.66;5027460;28;20076;-79
2022/06/26 06:00:38;;;;;;;4.80;3.70;;;;;;;22.13;59.74;98632.69;5035469;28;21286;-78
2022/06/26 06:03:05;;;;;;;5.57;5.05;;;;;;;21.52;64.56;98623.19;5024503;28;20029;-79
2022/06/26 06:05:31;;;;;;;4.80;3.65;;;;;;;21.93;61.08;98621.78;5043065;28;20030;-79
2022/06/26 06:07:56;;;;;;;3.75;3.47;;;;;;;22.15;59.84;98616.84;5024221;28;20476;-78
2022/06/26 06:10:24;;;;;;;7.15;5.05;;;;;;;22.18;64.68;98628.97;5023878;28;20048;-79
2022/06/26 06:12:51;;;;;;;6.43;3.92;;;;;;;22.07;65.07;98631.28;5023782;28;20033;-78
2022/06/26 06:15:20;;;;;;;4.70;3.50;;;;;;;22.25;60.85;98632.78;5025801;28;20112;-79
2022/06/26 06:17:46;;;;;;;4.80;3.60;;;;;;;22.05;64.50;98638.19;5004981;28;20029;-79
2022/06/26 06:20:14;;;;;;;6.15;4.15;;;;;;;22.15;64.86;98625.00;5019406;28;20457;-79
2022/06/26 06:22:44;;;;;;;4.38;3.97;;;;;;;22.34;62.67;98627.28;5010933;28;20404;-79
2022/06/26 06:25:10;;;;;;;5.45;4.72;;;;;;;22.27;65.65;98635.16;5022641;28;20032;-79
2022/06/26 06:27:38;;;;;;;4.25;3.92;;;;;;;22.19;65.77;98638.75;5023474;28;20029;-79
2022/06/26 06:30:05;;;;;;;3.67;3.38;;;;;;;22.38;60.67;98628.22;5025946;28;20457;-79
2022/06/26 06:32:31;;;;;;;7.57;5.45;;;;;;;22.23;66.07;98645.13;5024766;28;20409;-79
2022/06/26 06:34:56;;;;;;;4.57;3.92;;;;;;;22.25;65.27;98635.50;5026023;28;20029;-79
2022/06/26 06:37:22;;;;;;;5.78;3.72;;;;;;;22.39;63.18;98638.75;5025759;28;20033;-79
2022/06/26 06:39:47;;;;;;;5.38;4.72;;;;;;;22.28;67.08;98640.25;5024535;28;20038;-79
2022/06/26 06:42:13;;;;;;;4.68;4.28;;;;;;;22.32;67.36;98648.59;5030059;28;20492;-78
2022/06/26 06:44:38;;;;;;;4.28;3.75;;;;;;;22.49;64.41;98642.22;5022812;28;20120;-79
2022/06/26 06:47:05;;;;;;;3.80;3.60;;;;;;;22.47;61.84;98644.47;5024866;28;20017;-79
2022/06/26 06:49:30;;;;;;;4.10;3.20;;;;;;;22.61;61.85;98656.72;5024783;28;20032;-79
2022/06/26 06:51:56;;;;;;;5.55;4.43;;;;;;;22.61;67.14;98653.19;5024788;28;20033;-79
2022/06/26 06:54:21;;;;;;;4.22;3.83;;;;;;;22.42;68.17;98656.34;5027562;28;20025;-79
2022/06/26 06:56:47;;;;;;;5.93;4.38;;;;;;;22.18;69.22;98650.72;5023063;28;20040;-79
2022/06/26 06:59:12;;;;;;;3.65;3.45;;;;;;;22.69;61.71;98664.03;5021852;28;20025;-79
2022/06/26 07:01:38;;;;;;;4.18;3.78;;;;;;;22.72;61.42;98654.38;5021422;28;20474;-79
2022/06/26 07:04:04;;;;;;;4.60;3.95;;;;;;;22.56;66.10;98666.97;5024345;28;20025;-78
2022/06/26 07:06:29;;;;;;;3.78;3.47;;;;;;;22.82;61.98;98671.13;5039781;28;20033;-78
2022/06/26 07:08:54;;;;;;;4.53;3.50;;;;;;;23.02;60.81;98673.03;5027262;28;20029;-78
2022/06/26 07:11:20;;;;;;;4.18;3.78;;;;;;;23.13;60.28;98670.69;5025345;28;20079;-79
2022/06/26 07:13:45;;;;;;;6.88;3.88;;;;;;;23.11;60.43;98672.94;5023788;28;20083;-78
2022/06/26 07:16:11;;;;;;;3.80;3.30;;;;;;;23.13;60.62;98678.06;5025145;28;20386;-78
2022/06/26 07:18:37;;;;;;;3.88;3.58;;;;;;;22.90;62.26;98674.91;5004640;28;20036;-78
2022/06/26 07:21:03;;;;;;;4.88;3.40;;;;;;;23.12;60.76;98682.72;5022878;28;20095;-78
2022/06/26 07:23:29;;;;;;;5.95;4.00;;;;;;;23.05;62.14;98675.09;5044785;28;20106;-78
2022/06/26 07:25:56;;;;;;;4.60;3.80;;;;;;;23.11;61.19;98676.47;5025664;28;20069;-78
2022/06/26 07:28:22;;;;;;;3.78;3.47;;;;;;;23.29;60.17;98677.09;5027872;28;20058;-78
2022/06/26 07:30:47;;;;;;;4.57;3.47;;;;;;;23.17;61.86;98682.53;5019272;28;20040;-78
2022/06/26 07:35:57;;;;;;;6.15;3.50;;;;;;;23.50;62.00;98679.81;5026263;28;20555;-78
2022/06/26 07:38:22;;;;;;;4.07;3.78;;;;;;;23.45;60.82;98672.66;5029085;28;20029;-79
2022/06/26 07:40:48;;;;;;;4.13;3.72;;;;;;;23.46;60.76;98668.78;5029198;28;20033;-79
2022/06/26 07:43:13;;;;;;;4.72;3.33;;;;;;;23.58;59.78;98674.28;4986476;28;20032;-78
2022/06/26 07:45:39;;;;;;;3.58;3.35;;;;;;;23.90;58.43;98678.06;5028125;28;20400;-79
2022/06/26 07:48:05;;;;;;;3.63;3.33;;;;;;;23.94;59.11;98678.19;5035900;28;20680;-79
2022/06/26 07:50:30;;;;;;;5.22;3.40;;;;;;;23.91;58.19;98673.41;5028100;28;20033;-78
2022/06/26 07:52:56;;;;;;;4.32;3.15;;;;;;;23.95;58.26;98674.31;5026173;28;20048;-79
2022/06/26 07:55:22;;;;;;;3.90;3.30;;;;;;;23.91;60.92;98673.41;5024385;28;20037;-78
2022/06/26 07:57:47;;;;;;;4.72;3.65;;;;;;;23.75;57.42;98678.72;5025153;28;20044;-78
2022/06/26 08:00:13;;;;;;;3.58;3.28;;;;;;;23.83;58.47;98681.34;5025251;28;20037;-78
2022/06/26 08:02:39;;;;;;;4.10;3.67;;;;;;;23.93;56.72;98674.66;5023459;28;20550;-79
2022/06/26 08:05:05;;;;;;;4.63;4.22;;;;;;;23.81;56.95;98674.63;5025460;28;20029;-78
2022/06/26 08:07:30;;;;;;;4.03;3.28;;;;;;;23.74;57.35;98661.56;5025854;28;20314;-78
2022/06/26 08:09:55;;;;;;;3.13;2.92;;;;;;;24.03;58.52;98673.41;5026253;28;20029;-78
2022/06/26 08:12:21;;;;;;;4.88;3.45;;;;;;;24.11;56.87;98681.53;5027900;28;20041;-78
2022/06/26 08:14:46;;;;;;;4.07;3.47;;;;;;;24.30;56.51;98678.22;5029853;28;20135;-78
2022/06/26 08:17:12;;;;;;;3.95;3.35;;;;;;;24.41;59.21;98685.59;5025729;28;20414;-78
2022/06/26 08:19:37;;;;;;;5.05;3.63;;;;;;;24.47;58.40;98688.88;5029787;28;20032;-78
2022/06/26 08:22:03;;;;;;;4.50;3.70;;;;;;;24.71;55.42;98680.66;5029419;28;20029;-78
2022/06/26 08:24:31;;;;;;;3.17;2.88;;;;;;;24.78;55.82;98689.09;5029548;28;20037;-78
2022/06/26 08:26:56;;;;;;;4.72;3.53;;;;;;;24.75;55.49;98684.31;5029366;28;20497;-78
2022/06/26 08:29:22;;;;;;;4.53;3.92;;;;;;;24.51;59.13;98692.50;5031442;28;20056;-78
2022/06/26 08:31:47;;;;;;;4.32;3.92;;;;;;;23.83;58.63;98667.72;5027793;28;20041;-78
2022/06/26 08:34:12;;;;;;;4.15;3.75;;;;;;;23.61;58.63;98681.75;5026846;28;20057;-78
2022/06/26 08:36:41;;;;;;;3.38;3.17;;;;;;;24.46;57.07;98673.66;5029221;28;20188;-78
2022/06/26 08:39:07;;;;;;;3.83;3.42;;;;;;;25.01;55.88;98681.94;5010885;28;20349;-78
2022/06/26 08:41:38;;;;;;;3.90;3.50;;;;;;;25.06;55.79;98676.25;5029047;28;20029;-78
2022/06/26 08:44:04;;;;;;;3.67;3.38;;;;;;;24.62;57.62;98673.75;5029895;28;20021;-78
2022/06/26 08:46:33;;;;;;;3.90;3.60;;;;;;;24.60;57.68;98668.59;5026825;28;20048;-78
2022/06/26 08:49:01;;;;;;;4.38;3.97;;;;;;;24.64;58.25;98672.22;5030265;28;20068;-78
2022/06/26 08:51:27;;;;;;;3.50;3.03;;;;;;;25.22;55.48;98660.72;5029420;28;20033;-78
2022/06/26 08:53:53;;;;;;;6.90;3.67;;;;;;;24.97;56.98;98672.84;5026044;28;20044;-78
2022/06/26 08:56:19;;;;;;;4.88;3.90;;;;;;;25.01;56.48;98670.25;5029819;28;20033;-78
2022/06/26 08:58:45;;;;;;;3.90;3.50;;;;;;;25.42;56.14;98682.69;5023606;28;20021;-78
2022/06/26 09:01:10;;;;;;;3.40;3.10;;;;;;;25.87;54.58;98674.91;5030327;28;20033;-78
2022/06/26 09:03:36;;;;;;;3.70;3.40;;;;;;;25.87;54.19;98672.19;5026481;28;20116;-78
2022/06/26 09:06:02;;;;;;;3.47;3.20;;;;;;;26.01;54.44;98686.22;4990414;28;20025;-78
2022/06/26 09:08:30;;;;;;;3.78;3.50;;;;;;;25.85;54.86;98677.22;5024844;28;20040;-78
2022/06/26 09:10:57;;;;;;;3.65;3.35;;;;;;;26.26;53.63;98678.63;5029441;28;20036;-78
2022/06/26 09:13:22;;;;;;;3.50;3.20;;;;;;;26.23;53.97;98688.34;5024162;28;20346;-78
2022/06/26 09:15:50;;;;;;;2.97;2.78;;;;;;;26.39;54.04;98680.91;5024373;28;20048;-78
2022/06/26 09:18:16;;;;;;;5.95;3.97;;;;;;;25.19;55.30;98685.97;5025088;28;20029;-78
2022/06/26 09:20:55;;;;;;;3.78;3.47;;;;;;;24.76;55.84;98669.53;5029229;28;20029;-77
2022/06/26 09:23:22;;;;;;;5.97;3.67;;;;;;;25.17;56.52;98684.72;5019839;28;20030;-78
2022/06/26 09:25:48;;;;;;;3.55;3.30;;;;;;;25.44;55.83;98686.69;5022449;28;20488;-78
2022/06/26 09:28:16;;;;;;;5.07;3.33;;;;;;;26.19;54.62;98684.72;5021001;28;20038;-78
2022/06/26 09:30:59;;;;;;;3.33;3.13;;;;;;;26.02;54.90;98683.13;5018163;28;20064;-78
2022/06/26 09:33:30;;;;;;;5.55;4.20;;;;;;;26.36;54.01;98695.31;5017437;28;20053;-78
2022/06/26 09:35:56;;;;;;;3.97;3.67;;;;;;;25.84;55.33;98701.03;5026194;28;20041;-78
2022/06/26 09:38:27;;;;;;;4.40;3.63;;;;;;;25.86;55.27;98701.47;5016221;28;20040;-78
2022/06/26 09:40:56;;;;;;;3.55;3.25;;;;;;;26.84;53.73;98704.22;5002622;28;20044;-78
2022/06/26 09:43:44;;;;;;;3.10;2.85;;;;;;;27.45;51.74;98700.44;5010628;28;20176;-79
2022/06/26 09:46:14;;;;;;;2.92;2.75;;;;;;;27.48;53.13;98696.97;5019212;28;20048;-79
2022/06/26 09:48:41;;;;;;;3.00;2.80;;;;;;;27.75;50.85;98708.81;5028500;28;20051;-79
2022/06/26 09:51:12;;;;;;;4.30;3.25;;;;;;;27.76;53.03;98702.16;5026972;28;20040;-79
2022/06/26 09:53:39;;;;;;;5.35;3.30;;;;;;;27.69;50.42;98698.50;5007790;28;20097;-79
2022/06/26 09:56:06;;;;;;;2.90;2.58;;;;;;;27.57;51.45;98702.22;5025799;28;20056;-78
2022/06/26 09:58:31;;;;;;;3.13;2.92;;;;;;;27.91;50.67;98708.72;5029569;28;20136;-79
2022/06/26 10:06:28;;;;;;;3.00;2.80;;;;;;;28.08;50.62;98702.75;5029346;28;20347;-79
2022/06/26 10:09:03;;;;;;;3.70;3.38;;;;;;;28.12;51.90;98687.94;5025806;28;20120;-79
2022/06/26 10:11:32;;;;;;;3.15;2.70;;;;;;;28.33;50.15;98705.91;4989221;28;20033;-78
2022/06/26 10:14:02;;;;;;;3.65;3.35;;;;;;;28.34;49.83;98704.72;5024909;28;20436;-78
2022/06/26 10:16:30;;;;;;;3.10;2.90;;;;;;;28.40;49.62;98701.28;5028766;28;20017;-79
2022/06/26 10:19:11;;;;;;;3.35;3.00;;;;;;;28.48;49.67;98704.97;5041819;28;20056;-79
2022/06/26 10:21:38;;;;;;;2.70;2.50;;;;;;;28.49;49.06;98701.03;5038118;28;20032;-78
2022/06/26 10:24:05;;;;;;;2.88;2.67;;;;;;;28.48;49.02;98703.00;5028032;28;20424;-79
2022/06/26 10:26:31;;;;;;;2.90;2.70;;;;;;;28.34;50.41;98699.25;5028732;28;20041;-79
2022/06/26 10:28:58;;;;;;;2.60;2.30;;;;;;;28.51;48.85;98702.25;5026045;28;20086;-77
2022/06/26 10:31:24;;;;;;;2.58;2.38;;;;;;;28.34;49.06;98704.72;5012875;28;20033;-79
2022/06/26 10:33:49;;;;;;;3.38;3.08;;;;;;;28.27;49.24;98710.91;5025937;28;20041;-79
2022/06/26 10:36:22;;;;;;;2.97;2.78;;;;;;;28.31;48.90;98708.22;5029806;28;20508;-79
2022/06/26 10:38:48;;;;;;;2.85;2.65;;;;;;;28.52;49.20;98708.53;5026458;28;20079;-79
2022/06/26 10:44:10;;;;;;;3.33;2.50;;;;;;;28.27;49.07;98710.09;5024326;28;20083;-79
2022/06/26 10:46:44;;;;;;;3.40;2.88;;;;;;;28.41;48.93;98708.38;5024489;28;20032;-79
2022/06/26 10:49:10;;;;;;;2.70;2.50;;;;;;;28.38;48.95;98722.03;5018799;28;20025;-79
2022/06/26 10:51:40;;;;;;;2.80;2.60;;;;;;;28.17;49.09;98712.34;5007381;28;20386;-79
2022/06/26 10:54:22;;;;;;;3.03;2.83;;;;;;;27.75;51.23;98728.03;5007925;28;20029;-79
2022/06/26 10:57:02;;;;;;;2.88;2.70;;;;;;;28.08;49.29;98706.28;5019424;28;20053;-79
2022/06/26 10:59:28;;;;;;;3.33;2.70;;;;;;;27.75;50.48;98714.31;5017540;28;20492;-79
2022/06/26 11:01:54;;;;;;;3.25;2.95;;;;;;;27.82;49.68;98722.66;5012663;28;20025;-79
2022/06/26 11:04:19;;;;;;;3.72;2.58;;;;;;;27.71;50.61;98718.13;5026505;28;20496;-79
2022/06/26 11:06:45;;;;;;;3.53;3.22;;;;;;;27.70;50.17;98705.56;5005032;28;20037;-79
2022/06/26 11:09:10;;;;;;;2.80;2.60;;;;;;;27.70;50.42;98722.81;5000764;28;20048;-79
2022/06/26 11:11:36;;;;;;;3.67;3.38;;;;;;;27.53;50.75;98719.75;5021556;28;20481;-79
2022/06/26 11:14:09;;;;;;;3.03;2.83;;;;;;;27.35;51.56;98727.59;5026793;28;20108;-79
2022/06/26 11:16:43;;;;;;;2.53;2.40;;;;;;;27.21;51.31;98719.91;5026419;28;20381;-79
2022/06/26 11:19:30;;;;;;;3.47;3.17;;;;;;;27.30;51.81;98731.41;5021765;28;20381;-79
2022/06/26 11:22:10;;;;;;;3.60;2.85;;;;;;;27.22;51.52;98726.16;5024820;28;20385;-79
2022/06/26 11:24:47;;;;;;;3.65;3.20;;;;;;;27.18;51.46;98731.56;5023177;28;20036;-79
2022/06/26 11:27:13;;;;;;;3.40;3.10;;;;;;;27.09;51.85;98721.97;5024872;28;20035;-79
2022/06/26 11:29:39;;;;;;;2.70;2.50;;;;;;;27.12;52.07;98716.59;5026640;28;20559;-79
2022/06/26 11:32:05;;;;;;;3.50;3.25;;;;;;;27.12;52.46;98719.31;5018371;28;20126;-79
2022/06/26 11:34:31;;;;;;;3.53;3.28;;;;;;;27.50;51.80;98724.00;5021645;28;20507;-79
2022/06/26 11:36:58;;;;;;;3.97;2.83;;;;;;;27.91;51.91;98719.69;5030720;28;20037;-79
2022/06/26 11:39:35;;;;;;;3.35;3.15;;;;;;;28.06;51.16;98711.38;5041106;28;20520;-79
2022/06/26 11:42:01;;;;;;;3.58;3.20;;;;;;;28.37;51.08;98695.75;5019702;28;20037;-80
2022/06/26 11:44:26;;;;;;;3.25;2.88;;;;;;;28.48;50.17;98697.53;5026395;28;20041;-79
2022/06/26 11:46:52;;;;;;;4.40;2.88;;;;;;;29.04;49.00;98685.72;5024316;28;20068;-79